sensor_id;sensor_type;location;lat;lon;timestamp;pressure;altitude;pressure_sealevel;temperature;humidity
39405;BME280;25121;51.090;17.038;2022-12-07T00:00:32;99569.84;;;3.99;75.11
39405;BME280;25121;51.090;17.038;2022-12-07T00:01:57;99570.56;;;4.01;75.18
39405;BME280;25121;51.090;17.038;2022-12-07T00:03:22;99577.25;;;4.05;75.11
39405;BME280;25121;51.090;17.038;2022-12-07T00:04:43;99588.13;;;4.12;74.95
39405;BME280;25121;51.090;17.038;2022-12-07T00:06:08;99572.91;;;4.04;75.19
39405;BME280;25121;51.090;17.038;2022-12-07T00:07:33;99583.94;;;4.09;75.07
39405;BME280;25121;51.090;17.038;2022-12-07T00:08:56;99571.91;;;4.05;75.14
39405;BME280;25121;51.090;17.038;2022-12-07T00:10:21;99593.03;;;4.16;75.09
39405;BME280;25121;51.090;17.038;2022-12-07T00:11:48;99571.78;;;4.06;74.83
39405;BME280;25121;51.090;17.038;2022-12-07T00:13:13;99561.28;;;4.05;74.72
39405;BME280;25121;51.090;17.038;2022-12-07T00:14:36;99581.38;;;4.17;74.87
39405;BME280;25121;51.090;17.038;2022-12-07T00:16:15;99570.22;;;4.14;74.77
39405;BME280;25121;51.090;17.038;2022-12-07T00:17:45;99560.31;;;4.06;74.65
39405;BME280;25121;51.090;17.038;2022-12-07T00:19:21;99580.56;;;4.17;74.71
39405;BME280;25121;51.090;17.038;2022-12-07T00:20:47;99561.72;;;4.10;74.83
39405;BME280;25121;51.090;17.038;2022-12-07T00:22:08;99558.19;;;4.09;74.71
39405;BME280;25121;51.090;17.038;2022-12-07T00:23:33;99568.56;;;4.13;74.76
39405;BME280;25121;51.090;17.038;2022-12-07T00:24:55;99555.00;;;4.06;74.58
39405;BME280;25121;51.090;17.038;2022-12-07T00:26:21;99559.88;;;4.10;74.80
39405;BME280;25121;51.090;17.038;2022-12-07T00:27:47;99552.88;;;4.09;74.70
39405;BME280;25121;51.090;17.038;2022-12-07T00:29:16;99558.34;;;4.08;74.59
39405;BME280;25121;51.090;17.038;2022-12-07T00:30:42;99556.97;;;4.04;74.49
39405;BME280;25121;51.090;17.038;2022-12-07T00:32:12;99547.31;;;4.03;74.56
39405;BME280;25121;51.090;17.038;2022-12-07T00:34:28;99561.72;;;4.10;74.51
39405;BME280;25121;51.090;17.038;2022-12-07T00:36:05;99556.66;;;4.07;74.13
39405;BME280;25121;51.090;17.038;2022-12-07T00:37:32;99555.97;;;4.05;74.36
39405;BME280;25121;51.090;17.038;2022-12-07T00:39:05;99561.28;;;4.05;74.26
39405;BME280;25121;51.090;17.038;2022-12-07T00:40:43;99544.69;;;3.93;74.32
39405;BME280;25121;51.090;17.038;2022-12-07T00:42:15;99559.22;;;3.99;74.26
39405;BME280;25121;51.090;17.038;2022-12-07T00:43:47;99544.84;;;3.92;74.27
39405;BME280;25121;51.090;17.038;2022-12-07T00:45:19;99557.41;;;3.99;74.32
39405;BME280;25121;51.090;17.038;2022-12-07T00:46:42;99541.47;;;3.89;74.19
39405;BME280;25121;51.090;17.038;2022-12-07T00:48:08;99544.84;;;3.92;74.47
39405;BME280;25121;51.090;17.038;2022-12-07T00:49:35;99538.28;;;3.86;74.46
39405;BME280;25121;51.090;17.038;2022-12-07T00:50:57;99550.97;;;3.92;74.55
39405;BME280;25121;51.090;17.038;2022-12-07T00:52:22;99552.69;;;3.93;74.56
39405;BME280;25121;51.090;17.038;2022-12-07T00:53:44;99549.19;;;3.93;74.44
39405;BME280;25121;51.090;17.038;2022-12-07T00:55:06;99552.38;;;3.96;74.59
39405;BME280;25121;51.090;17.038;2022-12-07T00:56:30;99555.88;;;3.97;74.69
39405;BME280;25121;51.090;17.038;2022-12-07T00:57:53;99559.34;;;3.97;74.71
39405;BME280;25121;51.090;17.038;2022-12-07T00:59:14;99562.72;;;3.99;74.82
39405;BME280;25121;51.090;17.038;2022-12-07T01:00:38;99558.22;;;4.00;74.72
39405;BME280;25121;51.090;17.038;2022-12-07T01:02:00;99563.53;;;4.00;74.66
39405;BME280;25121;51.090;17.038;2022-12-07T01:03:22;99557.56;;;3.98;74.73
39405;BME280;25121;51.090;17.038;2022-12-07T01:04:43;99560.75;;;4.01;74.49
39405;BME280;25121;51.090;17.038;2022-12-07T01:06:05;99567.06;;;4.00;74.40
39405;BME280;25121;51.090;17.038;2022-12-07T01:07:26;99565.25;;;4.01;74.43
39405;BME280;25121;51.090;17.038;2022-12-07T01:08:49;99553.38;;;3.95;74.47
39405;BME280;25121;51.090;17.038;2022-12-07T01:10:11;99561.59;;;4.02;74.52
39405;BME280;25121;51.090;17.038;2022-12-07T01:11:35;99574.75;;;4.03;74.59
39405;BME280;25121;51.090;17.038;2022-12-07T01:12:59;99565.78;;;4.04;74.48
39405;BME280;25121;51.090;17.038;2022-12-07T01:14:21;99560.44;;;4.04;74.35
39405;BME280;25121;51.090;17.038;2022-12-07T01:15:44;99560.44;;;4.04;74.30
39405;BME280;25121;51.090;17.038;2022-12-07T01:17:07;99561.28;;;4.05;74.51
39405;BME280;25121;51.090;17.038;2022-12-07T01:18:31;99549.97;;;4.03;74.47
39405;BME280;25121;51.090;17.038;2022-12-07T01:19:52;99563.28;;;4.03;74.47
39405;BME280;25121;51.090;17.038;2022-12-07T01:21:17;99562.16;;;4.05;74.31
39405;BME280;25121;51.090;17.038;2022-12-07T01:22:38;99555.97;;;4.05;74.38
39405;BME280;25121;51.090;17.038;2022-12-07T01:24:01;99555.31;;;4.03;74.39
39405;BME280;25121;51.090;17.038;2022-12-07T01:25:24;99560.44;;;4.04;74.23
39405;BME280;25121;51.090;17.038;2022-12-07T01:26:45;99547.59;;;4.00;74.68
39405;BME280;25121;51.090;17.038;2022-12-07T01:28:08;99550.66;;;4.05;74.52
39405;BME280;25121;51.090;17.038;2022-12-07T01:29:29;99547.59;;;4.00;74.42
39405;BME280;25121;51.090;17.038;2022-12-07T01:30:57;99552.34;;;4.06;74.23
39405;BME280;25121;51.090;17.038;2022-12-07T01:32:21;99561.16;;;4.06;74.26
39405;BME280;25121;51.090;17.038;2022-12-07T01:33:48;99553.31;;;4.05;74.18
39405;BME280;25121;51.090;17.038;2022-12-07T01:35:09;99549.97;;;4.03;74.25
39405;BME280;25121;51.090;17.038;2022-12-07T01:36:33;99557.09;;;4.02;74.39
39405;BME280;25121;51.090;17.038;2022-12-07T01:37:54;99556.97;;;4.04;74.36
39405;BME280;25121;51.090;17.038;2022-12-07T01:39:16;99552.47;;;4.04;74.52
39405;BME280;25121;51.090;17.038;2022-12-07T01:40:38;99552.63;;;4.03;74.42
39405;BME280;25121;51.090;17.038;2022-12-07T01:41:59;99561.28;;;4.05;74.41
39405;BME280;25121;51.090;17.038;2022-12-07T01:43:24;99562.16;;;4.05;74.26
39405;BME280;25121;51.090;17.038;2022-12-07T01:47:00;99556.84;;;4.05;74.17
39405;BME280;25121;51.090;17.038;2022-12-07T01:48:26;99553.16;;;4.06;74.10
39405;BME280;25121;51.090;17.038;2022-12-07T01:49:48;99558.63;;;4.05;74.12
39405;BME280;25121;51.090;17.038;2022-12-07T01:51:12;99549.97;;;4.03;74.08
39405;BME280;25121;51.090;17.038;2022-12-07T01:52:36;99555.13;;;4.04;74.02
39405;BME280;25121;51.090;17.038;2022-12-07T01:53:58;99555.31;;;4.03;74.09
39405;BME280;25121;51.090;17.038;2022-12-07T01:55:21;99556.97;;;4.04;73.77
39405;BME280;25121;51.090;17.038;2022-12-07T01:56:44;99547.47;;;4.01;74.14
39405;BME280;25121;51.090;17.038;2022-12-07T01:58:09;99549.13;;;4.02;74.12
39405;BME280;25121;51.090;17.038;2022-12-07T01:59:33;99557.97;;;4.03;74.21
39405;BME280;25121;51.090;17.038;2022-12-07T02:00:55;99559.63;;;4.04;74.22
39405;BME280;25121;51.090;17.038;2022-12-07T02:02:19;99565.06;;;4.02;74.26
39405;BME280;25121;51.090;17.038;2022-12-07T02:03:43;99549.28;;;4.01;74.21
39405;BME280;25121;51.090;17.038;2022-12-07T02:05:07;99558.09;;;4.01;74.03
39405;BME280;25121;51.090;17.038;2022-12-07T02:06:29;99559.91;;;4.01;74.22
39405;BME280;25121;51.090;17.038;2022-12-07T02:07:55;99560.75;;;4.01;74.10
39405;BME280;25121;51.090;17.038;2022-12-07T02:09:18;99556.44;;;4.00;74.44
39405;BME280;25121;51.090;17.038;2022-12-07T02:10:39;99556.44;;;4.00;73.99
39405;BME280;25121;51.090;17.038;2022-12-07T02:12:02;99559.09;;;4.00;74.09
39405;BME280;25121;51.090;17.038;2022-12-07T02:13:26;99557.41;;;3.99;74.13
39405;BME280;25121;51.090;17.038;2022-12-07T02:14:49;99552.91;;;4.00;74.12
39405;BME280;25121;51.090;17.038;2022-12-07T02:16:24;99556.69;;;3.97;74.16
39405;BME280;25121;51.090;17.038;2022-12-07T02:17:54;99555.03;;;3.96;74.32
39405;BME280;25121;51.090;17.038;2022-12-07T02:21:15;99554.34;;;3.94;74.34
39405;BME280;25121;51.090;17.038;2022-12-07T02:22:54;99553.50;;;3.94;74.25
39405;BME280;25121;51.090;17.038;2022-12-07T02:24:42;99559.53;;;3.96;74.17
39405;BME280;25121;51.090;17.038;2022-12-07T02:28:05;99553.09;;;3.88;74.18
39405;BME280;25121;51.090;17.038;2022-12-07T02:29:34;99546.97;;;3.88;74.17
39405;BME280;25121;51.090;17.038;2022-12-07T02:31:02;99548.94;;;3.86;74.12
39405;BME280;25121;51.090;17.038;2022-12-07T02:32:29;99550.19;;;3.82;74.32
39405;BME280;25121;51.090;17.038;2022-12-07T02:34:04;99564.47;;;3.81;74.35
39405;BME280;25121;51.090;17.038;2022-12-07T02:35:30;99562.94;;;3.78;74.14
39405;BME280;25121;51.090;17.038;2022-12-07T02:36:57;99561.53;;;3.74;74.18
39405;BME280;25121;51.090;17.038;2022-12-07T02:38:26;99559.88;;;3.73;74.36
39405;BME280;25121;51.090;17.038;2022-12-07T02:39:57;99557.50;;;3.70;74.48
39405;BME280;25121;51.090;17.038;2022-12-07T02:41:26;99555.97;;;3.67;74.44
39405;BME280;25121;51.090;17.038;2022-12-07T02:42:53;99551.63;;;3.66;74.38
39405;BME280;25121;51.090;17.038;2022-12-07T02:44:18;99544.66;;;3.65;74.62
39405;BME280;25121;51.090;17.038;2022-12-07T02:45:47;99558.06;;;3.64;74.49
39405;BME280;25121;51.090;17.038;2022-12-07T02:47:12;99553.75;;;3.63;74.63
39405;BME280;25121;51.090;17.038;2022-12-07T02:48:36;99556.53;;;3.61;74.72
39405;BME280;25121;51.090;17.038;2022-12-07T02:49:59;99549.56;;;3.60;74.82
39405;BME280;25121;51.090;17.038;2022-12-07T02:51:21;99547.03;;;3.59;74.91
39405;BME280;25121;51.090;17.038;2022-12-07T02:52:43;99553.88;;;3.61;74.79
39405;BME280;25121;51.090;17.038;2022-12-07T02:54:09;99549.41;;;3.62;75.01
39405;BME280;25121;51.090;17.038;2022-12-07T02:55:36;99552.91;;;3.62;75.02
39405;BME280;25121;51.090;17.038;2022-12-07T02:57:06;99546.06;;;3.60;74.86
39405;BME280;25121;51.090;17.038;2022-12-07T02:58:44;99549.56;;;3.60;74.79
39405;BME280;25121;51.090;17.038;2022-12-07T03:00:14;99556.69;;;3.60;74.59
39405;BME280;25121;51.090;17.038;2022-12-07T03:01:44;99547.03;;;3.59;74.88
39405;BME280;25121;51.090;17.038;2022-12-07T03:03:13;99543.69;;;3.57;75.00
39405;BME280;25121;51.090;17.038;2022-12-07T03:04:44;99533.22;;;3.55;74.84
39405;BME280;25121;51.090;17.038;2022-12-07T03:06:16;99546.50;;;3.55;74.96
39405;BME280;25121;51.090;17.038;2022-12-07T03:07:50;99548.31;;;3.55;75.00
39405;BME280;25121;51.090;17.038;2022-12-07T03:09:16;99545.66;;;3.55;75.18
39405;BME280;25121;51.090;17.038;2022-12-07T03:10:48;99543.28;;;3.52;75.00
39405;BME280;25121;51.090;17.038;2022-12-07T03:12:16;99547.59;;;3.53;74.98
39405;BME280;25121;51.090;17.038;2022-12-07T03:13:45;99550.25;;;3.53;74.75
39405;BME280;25121;51.090;17.038;2022-12-07T03:15:13;99544.13;;;3.52;74.93
39405;BME280;25121;51.090;17.038;2022-12-07T03:16:39;99546.78;;;3.52;75.06
39405;BME280;25121;51.090;17.038;2022-12-07T03:18:04;99550.25;;;3.53;75.35
39405;BME280;25121;51.090;17.038;2022-12-07T03:19:26;99542.44;;;3.51;75.35
39405;BME280;25121;51.090;17.038;2022-12-07T03:20:50;99535.19;;;3.53;75.31
39405;BME280;25121;51.090;17.038;2022-12-07T03:22:14;99544.81;;;3.54;75.41
39405;BME280;25121;51.090;17.038;2022-12-07T03:23:39;99541.19;;;3.55;75.39
39405;BME280;25121;51.090;17.038;2022-12-07T03:25:06;99543.00;;;3.55;75.10
39405;BME280;25121;51.090;17.038;2022-12-07T03:26:32;99540.19;;;3.56;75.51
39405;BME280;25121;51.090;17.038;2022-12-07T03:27:58;99546.06;;;3.60;75.58
39405;BME280;25121;51.090;17.038;2022-12-07T03:29:25;99539.91;;;3.59;75.57
39405;BME280;25121;51.090;17.038;2022-12-07T03:30:49;99536.41;;;3.59;75.21
39405;BME280;25121;51.090;17.038;2022-12-07T03:32:19;99537.81;;;3.63;75.13
39405;BME280;25121;51.090;17.038;2022-12-07T03:33:49;99532.63;;;3.61;75.30
39405;BME280;25121;51.090;17.038;2022-12-07T03:35:16;99535.16;;;3.63;75.19
39405;BME280;25121;51.090;17.038;2022-12-07T03:36:44;99536.81;;;3.64;75.12
39405;BME280;25121;51.090;17.038;2022-12-07T03:38:14;99536.81;;;3.64;75.00
39405;BME280;25121;51.090;17.038;2022-12-07T03:39:39;99538.47;;;3.65;75.01
39405;BME280;25121;51.090;17.038;2022-12-07T03:41:06;99519.47;;;3.60;74.94
39405;BME280;25121;51.090;17.038;2022-12-07T03:42:31;99526.19;;;3.64;75.12
39405;BME280;25121;51.090;17.038;2022-12-07T03:43:55;99529.84;;;3.63;75.02
39405;BME280;25121;51.090;17.038;2022-12-07T03:45:18;99526.19;;;3.64;75.33
39405;BME280;25121;51.090;17.038;2022-12-07T03:46:44;99520.03;;;3.63;75.36
39405;BME280;25121;51.090;17.038;2022-12-07T03:48:18;99516.41;;;3.64;75.28
39405;BME280;25121;51.090;17.038;2022-12-07T03:49:49;99521.72;;;3.64;75.42
39405;BME280;25121;51.090;17.038;2022-12-07T03:51:17;99517.38;;;3.63;75.00
39405;BME280;25121;51.090;17.038;2022-12-07T03:52:44;99510.25;;;3.64;75.21
39405;BME280;25121;51.090;17.038;2022-12-07T03:54:10;99511.25;;;3.63;75.18
39405;BME280;25121;51.090;17.038;2022-12-07T03:55:35;99518.22;;;3.64;75.11
39405;BME280;25121;51.090;17.038;2022-12-07T03:56:59;99521.88;;;3.63;75.18
39405;BME280;25121;51.090;17.038;2022-12-07T03:58:23;99515.69;;;3.62;75.12
39405;BME280;25121;51.090;17.038;2022-12-07T03:59:47;99505.22;;;3.61;74.96
39405;BME280;25121;51.090;17.038;2022-12-07T04:01:09;99523.00;;;3.60;75.14
39405;BME280;25121;51.090;17.038;2022-12-07T04:02:30;99520.34;;;3.60;75.04
39405;BME280;25121;51.090;17.038;2022-12-07T04:03:55;99517.00;;;3.58;75.26
39405;BME280;25121;51.090;17.038;2022-12-07T04:05:17;99510.97;;;3.56;75.32
39405;BME280;25121;51.090;17.038;2022-12-07T04:06:38;99510.16;;;3.56;75.53
39405;BME280;25121;51.090;17.038;2022-12-07T04:08:01;99514.47;;;3.57;75.32
39405;BME280;25121;51.090;17.038;2022-12-07T04:09:22;99512.09;;;3.54;75.51
39405;BME280;25121;51.090;17.038;2022-12-07T04:10:44;99510.97;;;3.56;75.38
39405;BME280;25121;51.090;17.038;2022-12-07T04:12:06;99516.28;;;3.56;75.25
39405;BME280;25121;51.090;17.038;2022-12-07T04:13:27;99522.44;;;3.57;75.37
39405;BME280;25121;51.090;17.038;2022-12-07T04:14:49;99521.59;;;3.56;75.48
39405;BME280;25121;51.090;17.038;2022-12-07T04:16:13;99518.81;;;3.58;75.36
39405;BME280;25121;51.090;17.038;2022-12-07T04:17:36;99514.47;;;3.57;75.30
39405;BME280;25121;51.090;17.038;2022-12-07T04:18:59;99515.28;;;3.57;75.13
39405;BME280;25121;51.090;17.038;2022-12-07T04:20:21;99528.44;;;3.59;75.43
39405;BME280;25121;51.090;17.038;2022-12-07T04:21:43;99528.44;;;3.59;75.59
39405;BME280;25121;51.090;17.038;2022-12-07T04:23:04;99517.94;;;3.57;75.43
39405;BME280;25121;51.090;17.038;2022-12-07T04:24:27;99516.41;;;3.55;75.45
39405;BME280;25121;51.090;17.038;2022-12-07T04:25:48;99506.09;;;3.52;75.58
39405;BME280;25121;51.090;17.038;2022-12-07T04:27:14;99518.94;;;3.56;75.39
39405;BME280;25121;51.090;17.038;2022-12-07T04:28:35;99516.16;;;3.58;75.50
39405;BME280;25121;51.090;17.038;2022-12-07T04:29:57;99520.59;;;3.57;75.51
39405;BME280;25121;51.090;17.038;2022-12-07T04:31:20;99521.59;;;3.56;75.31
39405;BME280;25121;51.090;17.038;2022-12-07T04:32:41;99502.44;;;3.53;75.39
39405;BME280;25121;51.090;17.038;2022-12-07T04:34:05;99522.31;;;3.58;75.43
39405;BME280;25121;51.090;17.038;2022-12-07T04:35:26;99518.13;;;3.56;75.54
39405;BME280;25121;51.090;17.038;2022-12-07T04:36:49;99520.59;;;3.57;75.42
39405;BME280;25121;51.090;17.038;2022-12-07T04:38:11;99517.13;;;3.57;75.45
39405;BME280;25121;51.090;17.038;2022-12-07T04:39:33;99520.59;;;3.57;75.53
39405;BME280;25121;51.090;17.038;2022-12-07T04:40:55;99510.16;;;3.56;75.53
39405;BME280;25121;51.090;17.038;2022-12-07T04:42:16;99523.97;;;3.59;75.49
39405;BME280;25121;51.090;17.038;2022-12-07T04:43:38;99524.13;;;3.58;75.34
39405;BME280;25121;51.090;17.038;2022-12-07T04:44:59;99513.50;;;3.58;75.47
39405;BME280;25121;51.090;17.038;2022-12-07T04:46:22;99522.13;;;3.60;75.49
39405;BME280;25121;51.090;17.038;2022-12-07T04:47:44;99516.41;;;3.55;75.42
39405;BME280;25121;51.090;17.038;2022-12-07T04:49:07;99516.81;;;3.60;75.50
39405;BME280;25121;51.090;17.038;2022-12-07T04:50:30;99516.00;;;3.59;75.43
39405;BME280;25121;51.090;17.038;2022-12-07T04:51:51;99509.16;;;3.57;75.53
39405;BME280;25121;51.090;17.038;2022-12-07T04:53:13;99508.19;;;3.58;75.36
39405;BME280;25121;51.090;17.038;2022-12-07T04:54:36;99508.44;;;3.55;75.35
39405;BME280;25121;51.090;17.038;2022-12-07T04:56:02;99513.63;;;3.56;75.38
39405;BME280;25121;51.090;17.038;2022-12-07T04:57:24;99509.44;;;3.54;75.48
39405;BME280;25121;51.090;17.038;2022-12-07T04:58:47;99508.44;;;3.55;75.34
39405;BME280;25121;51.090;17.038;2022-12-07T05:00:10;99507.50;;;3.56;75.48
39405;BME280;25121;51.090;17.038;2022-12-07T05:01:33;99513.75;;;3.55;75.71
39405;BME280;25121;51.090;17.038;2022-12-07T05:02:56;99510.16;;;3.56;75.50
39405;BME280;25121;51.090;17.038;2022-12-07T05:04:18;99500.25;;;3.48;75.64
39405;BME280;25121;51.090;17.038;2022-12-07T05:05:41;99489.75;;;3.47;75.64
39405;BME280;25121;51.090;17.038;2022-12-07T05:07:03;99506.66;;;3.55;75.71
39405;BME280;25121;51.090;17.038;2022-12-07T05:08:24;99501.47;;;3.54;75.81
39405;BME280;25121;51.090;17.038;2022-12-07T05:09:46;99506.50;;;3.57;75.69
39405;BME280;25121;51.090;17.038;2022-12-07T05:11:09;99510.16;;;3.56;75.70
39405;BME280;25121;51.090;17.038;2022-12-07T05:12:52;99509.31;;;3.55;75.48
39405;BME280;25121;51.090;17.038;2022-12-07T05:14:16;99507.50;;;3.56;75.91
39405;BME280;25121;51.090;17.038;2022-12-07T05:15:42;99503.00;;;3.56;75.72
39405;BME280;25121;51.090;17.038;2022-12-07T05:17:04;99506.50;;;3.57;75.77
39405;BME280;25121;51.090;17.038;2022-12-07T05:18:26;99506.66;;;3.55;75.83
39405;BME280;25121;51.090;17.038;2022-12-07T05:19:51;99504.66;;;3.57;75.70
39405;BME280;25121;51.090;17.038;2022-12-07T05:21:13;99505.53;;;3.58;75.66
39405;BME280;25121;51.090;17.038;2022-12-07T05:22:37;99502.88;;;3.58;75.81
39405;BME280;25121;51.090;17.038;2022-12-07T05:23:59;99511.81;;;3.57;75.86
39405;BME280;25121;51.090;17.038;2022-12-07T05:25:20;99508.31;;;3.56;75.97
39405;BME280;25121;51.090;17.038;2022-12-07T05:26:44;99502.00;;;3.57;75.84
39405;BME280;25121;51.090;17.038;2022-12-07T05:28:06;99504.66;;;3.57;76.01
39405;BME280;25121;51.090;17.038;2022-12-07T05:29:31;99501.19;;;3.57;76.13
39405;BME280;25121;51.090;17.038;2022-12-07T05:30:55;99503.84;;;3.57;76.01
39405;BME280;25121;51.090;17.038;2022-12-07T05:32:19;99496.84;;;3.56;75.94
39405;BME280;25121;51.090;17.038;2022-12-07T05:33:41;99499.34;;;3.57;76.06
39405;BME280;25121;51.090;17.038;2022-12-07T05:35:06;99509.16;;;3.57;75.82
39405;BME280;25121;51.090;17.038;2022-12-07T05:36:28;99513.63;;;3.56;76.00
39405;BME280;25121;51.090;17.038;2022-12-07T05:37:51;99512.81;;;3.56;76.00
39405;BME280;25121;51.090;17.038;2022-12-07T05:39:13;99507.63;;;3.54;75.97
39405;BME280;25121;51.090;17.038;2022-12-07T05:40:36;99505.78;;;3.55;75.72
39405;BME280;25121;51.090;17.038;2022-12-07T05:42:00;99503.00;;;3.56;75.91
39405;BME280;25121;51.090;17.038;2022-12-07T05:43:33;99507.50;;;3.56;75.83
39405;BME280;25121;51.090;17.038;2022-12-07T05:44:55;99504.97;;;3.54;75.95
39405;BME280;25121;51.090;17.038;2022-12-07T05:46:17;99493.81;;;3.51;75.76
39405;BME280;25121;51.090;17.038;2022-12-07T05:47:38;99506.91;;;3.52;75.80
39405;BME280;25121;51.090;17.038;2022-12-07T05:49:01;99509.56;;;3.52;75.77
39405;BME280;25121;51.090;17.038;2022-12-07T05:50:24;99515.72;;;3.53;75.64
39405;BME280;25121;51.090;17.038;2022-12-07T05:51:53;99505.09;;;3.53;75.87
39405;BME280;25121;51.090;17.038;2022-12-07T05:53:15;99501.50;;;3.44;75.78
39405;BME280;25121;51.090;17.038;2022-12-07T05:54:42;99508.88;;;3.50;75.99
39405;BME280;25121;51.090;17.038;2022-12-07T05:56:13;99514.75;;;3.54;75.70
39405;BME280;25121;51.090;17.038;2022-12-07T05:58:00;99513.75;;;3.55;75.83
39405;BME280;25121;51.090;17.038;2022-12-07T05:59:40;99512.81;;;3.56;75.62
39405;BME280;25121;51.090;17.038;2022-12-07T06:01:02;99501.22;;;3.47;75.57
39405;BME280;25121;51.090;17.038;2022-12-07T06:02:29;99513.63;;;3.56;75.34
39405;BME280;25121;51.090;17.038;2022-12-07T06:03:51;99510.16;;;3.56;75.50
39405;BME280;25121;51.090;17.038;2022-12-07T06:05:15;99509.16;;;3.57;75.57
39405;BME280;25121;51.090;17.038;2022-12-07T06:06:39;99503.53;;;3.60;75.52
39405;BME280;25121;51.090;17.038;2022-12-07T06:08:01;99500.06;;;3.59;75.44
39405;BME280;25121;51.090;17.038;2022-12-07T06:09:26;99505.22;;;3.61;75.44
39405;BME280;25121;51.090;17.038;2022-12-07T06:10:49;99497.25;;;3.61;75.43
39405;BME280;25121;51.090;17.038;2022-12-07T06:12:31;99510.38;;;3.62;75.27
39405;BME280;25121;51.090;17.038;2022-12-07T06:13:58;99508.59;;;3.63;75.19
39405;BME280;25121;51.090;17.038;2022-12-07T06:15:19;99500.88;;;3.60;74.93
39405;BME280;25121;51.090;17.038;2022-12-07T06:16:43;99512.22;;;3.62;74.54
39405;BME280;25121;51.090;17.038;2022-12-07T06:18:04;99510.38;;;3.62;74.94
39405;BME280;25121;51.090;17.038;2022-12-07T06:19:27;99504.94;;;3.64;74.91
39405;BME280;25121;51.090;17.038;2022-12-07T06:20:51;99503.41;;;3.61;74.70
39405;BME280;25121;51.090;17.038;2022-12-07T06:22:14;99502.41;;;3.62;74.65
39405;BME280;25121;51.090;17.038;2022-12-07T06:23:36;99502.56;;;3.61;74.52
39405;BME280;25121;51.090;17.038;2022-12-07T06:24:58;99508.84;;;3.60;74.53
39405;BME280;25121;51.090;17.038;2022-12-07T06:26:27;99489.41;;;3.59;74.59
39405;BME280;25121;51.090;17.038;2022-12-07T06:27:48;99503.53;;;3.60;74.41
39405;BME280;25121;51.090;17.038;2022-12-07T06:29:46;99501.03;;;3.58;74.43
39405;BME280;25121;51.090;17.038;2022-12-07T06:31:10;99499.50;;;3.56;74.37
39405;BME280;25121;51.090;17.038;2022-12-07T06:32:35;99499.34;;;3.57;74.27
39405;BME280;25121;51.090;17.038;2022-12-07T06:33:58;99498.53;;;3.57;74.37
39405;BME280;25121;51.090;17.038;2022-12-07T06:35:21;99504.66;;;3.57;74.28
39405;BME280;25121;51.090;17.038;2022-12-07T06:36:43;99498.53;;;3.57;74.21
39405;BME280;25121;51.090;17.038;2022-12-07T06:38:06;99495.16;;;3.55;74.11
39405;BME280;25121;51.090;17.038;2022-12-07T06:39:29;99501.19;;;3.57;73.99
39405;BME280;25121;51.090;17.038;2022-12-07T06:40:51;99490.16;;;3.52;73.94
39405;BME280;25121;51.090;17.038;2022-12-07T06:42:12;99503.84;;;3.57;74.16
39405;BME280;25121;51.090;17.038;2022-12-07T06:43:34;99507.19;;;3.59;73.92
39405;BME280;25121;51.090;17.038;2022-12-07T06:44:56;99505.53;;;3.58;73.98
39405;BME280;25121;51.090;17.038;2022-12-07T06:46:21;99505.38;;;3.59;73.86
39405;BME280;25121;51.090;17.038;2022-12-07T06:47:44;99515.03;;;3.60;73.74
39405;BME280;25121;51.090;17.038;2022-12-07T06:49:06;99504.00;;;3.55;73.67
39405;BME280;25121;51.090;17.038;2022-12-07T06:50:28;99501.88;;;3.59;73.74
39405;BME280;25121;51.090;17.038;2022-12-07T06:51:53;99506.06;;;3.61;73.81
39405;BME280;25121;51.090;17.038;2022-12-07T06:53:53;99510.53;;;3.61;73.82
39405;BME280;25121;51.090;17.038;2022-12-07T06:55:15;99510.38;;;3.62;73.61
39405;BME280;25121;51.090;17.038;2022-12-07T06:56:38;99502.56;;;3.61;73.60
39405;BME280;25121;51.090;17.038;2022-12-07T06:58:00;99519.22;;;3.63;73.56
39405;BME280;25121;51.090;17.038;2022-12-07T06:59:23;99503.28;;;3.63;73.60
39405;BME280;25121;51.090;17.038;2022-12-07T07:00:47;99507.72;;;3.62;73.46
39405;BME280;25121;51.090;17.038;2022-12-07T07:02:10;99514.56;;;3.65;73.38
39405;BME280;25121;51.090;17.038;2022-12-07T07:03:32;99501.44;;;3.63;73.18
39405;BME280;25121;51.090;17.038;2022-12-07T07:04:53;99509.41;;;3.63;73.01
39405;BME280;25121;51.090;17.038;2022-12-07T07:06:15;99509.13;;;3.66;73.08
39405;BME280;25121;51.090;17.038;2022-12-07T07:07:38;99508.13;;;3.67;73.11
39405;BME280;25121;51.090;17.038;2022-12-07T07:09:19;99508.81;;;3.70;72.81
39405;BME280;25121;51.090;17.038;2022-12-07T07:10:41;99507.16;;;3.69;72.81
39405;BME280;25121;51.090;17.038;2022-12-07T07:12:03;99500.84;;;3.70;72.78
39405;BME280;25121;51.090;17.038;2022-12-07T07:13:25;99506.34;;;3.68;72.88
39405;BME280;25121;51.090;17.038;2022-12-07T07:14:50;99498.19;;;3.70;72.76
39405;BME280;25121;51.090;17.038;2022-12-07T07:16:13;99504.34;;;3.70;72.66
39405;BME280;25121;51.090;17.038;2022-12-07T07:17:44;99501.69;;;3.70;72.63
39405;BME280;25121;51.090;17.038;2022-12-07T07:19:07;99486.34;;;3.64;72.31
39405;BME280;25121;51.090;17.038;2022-12-07T07:20:29;99502.69;;;3.69;72.34
39405;BME280;25121;51.090;17.038;2022-12-07T07:21:51;99514.84;;;3.72;72.26
39405;BME280;25121;51.090;17.038;2022-12-07T07:23:13;99496.38;;;3.70;72.15
39405;BME280;25121;51.090;17.038;2022-12-07T07:24:35;99499.72;;;3.72;72.28
39405;BME280;25121;51.090;17.038;2022-12-07T07:25:57;99500.72;;;3.71;72.10
39405;BME280;25121;51.090;17.038;2022-12-07T07:27:19;99497.38;;;3.69;72.07
39405;BME280;25121;51.090;17.038;2022-12-07T07:28:42;99501.41;;;3.73;72.04
39405;BME280;25121;51.090;17.038;2022-12-07T07:30:05;99495.09;;;3.74;71.85
39405;BME280;25121;51.090;17.038;2022-12-07T07:31:27;99500.41;;;3.74;71.80
39405;BME280;25121;51.090;17.038;2022-12-07T07:32:49;99495.94;;;3.75;71.80
39405;BME280;25121;51.090;17.038;2022-12-07T07:34:10;99495.94;;;3.75;71.63
39405;BME280;25121;51.090;17.038;2022-12-07T07:35:33;99496.78;;;3.75;71.34
39405;BME280;25121;51.090;17.038;2022-12-07T07:36:56;99500.13;;;3.77;71.40